Time;durP1;ratioP1;P1;durP2;ratioP2;P2;SDS_P1;SDS_P2;PMS_P1;PMS_P2;Temp;Humidity;BMP_temperature;BMP_pressure;BME280_temperature;BME280_humidity;BME280_pressure;Samples;Min_cycle;Max_cycle;Signal;HPM_P1;HPM_P2
2021/08/27 00:01:03;;;;;;;0.45;0.30;;;;;;;;;;5016998;28;20073;-75
2021/08/27 00:03:29;;;;;;;1.27;0.38;;;;;;;;;;5019034;28;20069;-75
2021/08/27 00:05:56;;;;;;;1.20;0.30;;;;;;;;;;5010795;28;20072;-74
2021/08/27 00:08:22;;;;;;;1.50;0.50;;;;;;;;;;5017796;28;20076;-75
2021/08/27 00:10:48;;;;;;;0.45;0.20;;;;;;;;;;5014358;28;20108;-74
2021/08/27 00:13:15;;;;;;;0.52;0.32;;;;;;;;;;5023334;28;20053;-73
2021/08/27 00:15:41;;;;;;;0.82;0.30;;;;;;;;;;5021428;28;20041;-75
2021/08/27 00:18:08;;;;;;;0.90;0.30;;;;;;;;;;5019369;28;20510;-75
2021/08/27 00:20:36;;;;;;;1.35;0.30;;;;;;;;;;5033492;28;20065;-74
2021/08/27 00:23:02;;;;;;;0.80;0.30;;;;;;;;;;5021570;28;20050;-76
2021/08/27 00:25:29;;;;;;;0.73;0.30;;;;;;;;;;5023666;28;20571;-76
2021/08/27 00:27:55;;;;;;;0.77;0.65;;;;;;;;;;5019463;28;20065;-74
2021/08/27 00:30:22;;;;;;;1.08;0.30;;;;;;;;;;5014001;28;20064;-75
2021/08/27 00:32:48;;;;;;;0.75;0.40;;;;;;;;;;5012091;28;20057;-77
2021/08/27 00:35:15;;;;;;;0.63;0.22;;;;;;;;;;5033214;28;20072;-75
2021/08/27 00:37:41;;;;;;;0.73;0.30;;;;;;;;;;5025091;28;20520;-76
2021/08/27 00:40:08;;;;;;;0.50;0.30;;;;;;;;;;5023286;28;20042;-74
2021/08/27 00:42:35;;;;;;;1.13;0.40;;;;;;;;;;5023840;28;20065;-74
2021/08/27 00:45:01;;;;;;;0.80;0.30;;;;;;;;;;5018994;28;20187;-74
2021/08/27 00:47:28;;;;;;;0.75;0.30;;;;;;;;;;5010685;28;20486;-76
2021/08/27 00:49:54;;;;;;;1.08;0.30;;;;;;;;;;5031817;28;20065;-75
2021/08/27 00:52:21;;;;;;;0.82;0.30;;;;;;;;;;5024464;28;20033;-75
2021/08/27 00:54:49;;;;;;;0.22;0.20;;;;;;;;;;5011783;28;20119;-75
2021/08/27 00:57:16;;;;;;;0.85;0.40;;;;;;;;;;5027792;28;20049;-75
2021/08/27 00:59:43;;;;;;;0.68;0.35;;;;;;;;;;5028987;28;20539;-75
2021/08/27 01:02:09;;;;;;;0.60;0.30;;;;;;;;;;5020364;28;20068;-75
2021/08/27 01:04:41;;;;;;;0.88;0.20;;;;;;;;;;5023961;28;20065;-75
2021/08/27 01:07:12;;;;;;;1.23;0.40;;;;;;;;;;5027837;28;20063;-74
2021/08/27 01:09:53;;;;;;;1.90;0.57;;;;;;;;;;5026357;28;20065;-74
2021/08/27 01:12:19;;;;;;;0.60;0.30;;;;;;;;;;5016592;28;20050;-73
2021/08/27 01:14:52;;;;;;;1.05;0.20;;;;;;;;;;5022898;28;20095;-75
2021/08/27 01:17:29;;;;;;;0.57;0.38;;;;;;;;;;5015255;28;20064;-74
2021/08/27 01:20:23;;;;;;;0.85;0.38;;;;;;;;;;5017209;28;20066;-75
2021/08/27 01:23:01;;;;;;;1.02;0.30;;;;;;;;;;5022600;28;20127;-75
2021/08/27 01:25:30;;;;;;;0.68;0.35;;;;;;;;;;5013297;28;20075;-75
2021/08/27 01:27:58;;;;;;;0.40;0.20;;;;;;;;;;5021937;28;20088;-74
2021/08/27 01:30:47;;;;;;;0.50;0.22;;;;;;;;;;5025802;28;20061;-75
2021/08/27 01:33:15;;;;;;;0.40;0.20;;;;;;;;;;5020026;28;20127;-74
2021/08/27 01:35:46;;;;;;;0.70;0.40;;;;;;;;;;5032494;28;20507;-75
2021/08/27 01:38:13;;;;;;;0.52;0.25;;;;;;;;;;5024232;28;20147;-74
2021/08/27 01:40:40;;;;;;;1.15;0.10;;;;;;;;;;5025853;28;20147;-74
2021/08/27 01:43:09;;;;;;;0.43;0.30;;;;;;;;;;5024048;28;20053;-75
2021/08/27 01:45:36;;;;;;;0.40;0.20;;;;;;;;;;5024007;28;20045;-75
2021/08/27 01:48:05;;;;;;;1.02;0.30;;;;;;;;;;5016868;28;20073;-75
2021/08/27 01:50:32;;;;;;;0.15;0.15;;;;;;;;;;5022908;28;20061;-74
2021/08/27 01:52:59;;;;;;;0.47;0.13;;;;;;;;;;5026064;28;20076;-74
2021/08/27 01:55:26;;;;;;;0.68;0.30;;;;;;;;;;5022709;28;20072;-74
2021/08/27 01:57:54;;;;;;;0.57;0.30;;;;;;;;;;5033410;28;20076;-74
2021/08/27 02:00:22;;;;;;;0.50;0.30;;;;;;;;;;5026385;28;20685;-74
2021/08/27 02:02:49;;;;;;;0.65;0.30;;;;;;;;;;5027371;28;20060;-74
2021/08/27 02:05:16;;;;;;;0.57;0.22;;;;;;;;;;5026668;28;20123;-74
2021/08/27 02:07:42;;;;;;;0.47;0.30;;;;;;;;;;5025387;28;20282;-74
2021/08/27 02:10:09;;;;;;;0.75;0.32;;;;;;;;;;5019751;28;20482;-74
2021/08/27 02:12:36;;;;;;;0.90;0.30;;;;;;;;;;5025033;28;20154;-73
2021/08/27 02:15:03;;;;;;;1.05;0.40;;;;;;;;;;5022076;28;20494;-74
2021/08/27 02:17:30;;;;;;;1.25;0.35;;;;;;;;;;5030291;28;20101;-74
2021/08/27 02:19:58;;;;;;;0.68;0.32;;;;;;;;;;5023655;28;20076;-74
2021/08/27 02:22:27;;;;;;;0.47;0.30;;;;;;;;;;5024903;28;20087;-74
2021/08/27 02:24:56;;;;;;;0.35;0.20;;;;;;;;;;5012108;28;20057;-75
2021/08/27 02:27:23;;;;;;;0.38;0.30;;;;;;;;;;5016726;28;20103;-74
2021/08/27 02:29:51;;;;;;;1.17;0.40;;;;;;;;;;5026908;28;20053;-75
2021/08/27 02:32:18;;;;;;;1.20;0.40;;;;;;;;;;5024173;28;20531;-74
2021/08/27 02:34:45;;;;;;;0.38;0.20;;;;;;;;;;5017749;28;20136;-74
2021/08/27 02:37:13;;;;;;;0.52;0.30;;;;;;;;;;5022520;28;20065;-74
2021/08/27 02:39:39;;;;;;;1.08;0.25;;;;;;;;;;5025991;28;20038;-74
2021/08/27 02:42:06;;;;;;;1.20;0.40;;;;;;;;;;5030898;28;22236;-74
2021/08/27 02:44:32;;;;;;;0.60;0.20;;;;;;;;;;5034584;28;20041;-75
2021/08/27 02:46:59;;;;;;;0.93;0.30;;;;;;;;;;5015587;28;20065;-74
2021/08/27 02:49:25;;;;;;;0.77;0.22;;;;;;;;;;5019574;28;20040;-75
2021/08/27 02:51:55;;;;;;;0.60;0.20;;;;;;;;;;5019320;28;20064;-74
2021/08/27 02:54:22;;;;;;;0.52;0.25;;;;;;;;;;5016985;28;20061;-74
2021/08/27 02:56:50;;;;;;;0.90;0.30;;;;;;;;;;5024805;28;20084;-75
2021/08/27 02:59:18;;;;;;;1.58;0.40;;;;;;;;;;5022235;28;20057;-74
2021/08/27 03:01:51;;;;;;;2.17;0.40;;;;;;;;;;5018678;28;20065;-75
2021/08/27 03:04:36;;;;;;;0.63;0.40;;;;;;;;;;5028237;28;20060;-74
2021/08/27 03:07:06;;;;;;;0.30;0.20;;;;;;;;;;5025053;28;20097;-74
2021/08/27 03:09:51;;;;;;;0.43;0.25;;;;;;;;;;5026067;28;20079;-74
2021/08/27 03:12:19;;;;;;;0.60;0.30;;;;;;;;;;5020627;28;20079;-74
2021/08/27 03:14:50;;;;;;;0.68;0.40;;;;;;;;;;5022915;28;20057;-75
2021/08/27 03:17:16;;;;;;;;;;;;;;;;;;5020942;28;20104;-74
2021/08/27 03:19:46;;;;;;;1.27;0.30;;;;;;;;;;5030617;28;19998;-75
2021/08/27 03:22:17;;;;;;;0.73;0.40;;;;;;;;;;5031735;28;20785;-75
2021/08/27 03:24:47;;;;;;;0.95;0.50;;;;;;;;;;5007804;28;20584;-77
2021/08/27 03:27:19;;;;;;;0.52;0.20;;;;;;;;;;5029492;28;21492;-74
2021/08/27 03:29:50;;;;;;;1.17;0.20;;;;;;;;;;5010723;28;20451;-75
2021/08/27 03:32:19;;;;;;;0.60;0.30;;;;;;;;;;5008976;28;20065;-74
2021/08/27 03:34:46;;;;;;;2.15;0.40;;;;;;;;;;5016759;28;20065;-76
2021/08/27 03:37:13;;;;;;;1.17;0.40;;;;;;;;;;5021977;28;20073;-78
2021/08/27 03:39:41;;;;;;;0.88;0.40;;;;;;;;;;5024898;28;20053;-75
2021/08/27 03:42:07;;;;;;;0.40;0.30;;;;;;;;;;5023083;28;20057;-77
2021/08/27 03:44:35;;;;;;;1.00;0.32;;;;;;;;;;5018915;28;20481;-77
2021/08/27 03:47:02;;;;;;;0.68;0.30;;;;;;;;;;5015322;28;20466;-75
2021/08/27 03:49:29;;;;;;;0.77;0.40;;;;;;;;;;5024420;28;20123;-75
2021/08/27 03:51:56;;;;;;;0.82;0.30;;;;;;;;;;5013622;28;20505;-75
2021/08/27 03:54:23;;;;;;;1.02;0.40;;;;;;;;;;5020173;28;20064;-76
2021/08/27 03:56:50;;;;;;;0.80;0.30;;;;;;;;;;5016997;28;20065;-76
2021/08/27 03:59:32;;;;;;;0.52;0.30;;;;;;;;;;5009733;28;20057;-77
2021/08/27 04:01:59;;;;;;;0.82;0.40;;;;;;;;;;5017241;28;20108;-77
2021/08/27 04:04:25;;;;;;;1.55;0.40;;;;;;;;;;5023964;28;20098;-78
2021/08/27 04:07:02;;;;;;;0.40;0.30;;;;;;;;;;5029553;28;20050;-78
2021/08/27 04:09:29;;;;;;;0.52;0.30;;;;;;;;;;5012305;28;20112;-75
2021/08/27 04:11:56;;;;;;;0.47;0.30;;;;;;;;;;5019324;28;20064;-76
2021/08/27 04:14:23;;;;;;;0.88;0.43;;;;;;;;;;5018578;28;20053;-75
2021/08/27 04:16:49;;;;;;;0.82;0.30;;;;;;;;;;5015801;28;20532;-75
2021/08/27 04:19:16;;;;;;;0.95;0.55;;;;;;;;;;5023442;28;20099;-74
2021/08/27 04:21:42;;;;;;;1.60;0.60;;;;;;;;;;5014874;28;20084;-75
2021/08/27 04:24:09;;;;;;;0.68;0.40;;;;;;;;;;5027540;28;20049;-76
2021/08/27 04:26:36;;;;;;;0.63;0.40;;;;;;;;;;5020059;28;20107;-76
2021/08/27 04:29:02;;;;;;;0.73;0.40;;;;;;;;;;5020173;28;20049;-76
2021/08/27 04:31:29;;;;;;;0.88;0.45;;;;;;;;;;5011166;28;20178;-75
2021/08/27 04:33:55;;;;;;;0.90;0.52;;;;;;;;;;5019103;28;20058;-77
2021/08/27 04:36:22;;;;;;;0.80;0.50;;;;;;;;;;5022396;28;20065;-76
2021/08/27 04:38:50;;;;;;;1.25;0.47;;;;;;;;;;5028204;28;20069;-78
2021/08/27 04:41:17;;;;;;;1.00;0.50;;;;;;;;;;5023723;28;20065;-77
2021/08/27 04:43:43;;;;;;;1.92;0.52;;;;;;;;;;5026668;28;20049;-79
2021/08/27 04:46:11;;;;;;;2.70;0.80;;;;;;;;;;5012024;28;20069;-76
2021/08/27 04:48:38;;;;;;;2.50;0.77;;;;;;;;;;5026039;28;20626;-76
2021/08/27 04:51:04;;;;;;;2.33;0.80;;;;;;;;;;5014657;28;20037;-76
2021/08/27 04:53:31;;;;;;;3.10;0.90;;;;;;;;;;5018252;28;20052;-75
2021/08/27 04:55:57;;;;;;;3.72;1.15;;;;;;;;;;5029969;28;20049;-76
2021/08/27 04:58:25;;;;;;;3.22;0.80;;;;;;;;;;5032467;28;20064;-76
2021/08/27 05:00:52;;;;;;;3.25;0.93;;;;;;;;;;5014255;28;20061;-81
2021/08/27 05:03:19;;;;;;;2.95;0.65;;;;;;;;;;5015978;28;20048;-75
2021/08/27 05:05:46;;;;;;;10.52;1.00;;;;;;;;;;5013729;28;20069;-76
2021/08/27 05:08:12;;;;;;;6.45;0.80;;;;;;;;;;5028161;28;20060;-76
2021/08/27 05:10:39;;;;;;;1.65;0.77;;;;;;;;;;5019724;28;20499;-75
2021/08/27 05:13:05;;;;;;;3.05;1.33;;;;;;;;;;5017932;28;20058;-76
2021/08/27 05:15:31;;;;;;;3.33;0.93;;;;;;;;;;5030704;28;20144;-76
2021/08/27 05:17:58;;;;;;;3.67;1.05;;;;;;;;;;5014559;28;20096;-75
2021/08/27 05:20:25;;;;;;;5.43;1.00;;;;;;;;;;5016013;28;20068;-76
2021/08/27 05:22:52;;;;;;;2.55;0.73;;;;;;;;;;5028944;28;20088;-77
2021/08/27 05:25:18;;;;;;;3.25;0.80;;;;;;;;;;5027602;28;20062;-76
2021/08/27 05:27:44;;;;;;;5.40;0.82;;;;;;;;;;5029177;28;20107;-76
2021/08/27 05:30:12;;;;;;;3.20;1.08;;;;;;;;;;5016877;28;20060;-75
2021/08/27 05:32:38;;;;;;;2.30;0.90;;;;;;;;;;5018744;28;20069;-75
2021/08/27 05:35:05;;;;;;;3.80;1.00;;;;;;;;;;5021745;28;20033;-75
2021/08/27 05:37:31;;;;;;;3.20;0.95;;;;;;;;;;5015621;28;20482;-75
2021/08/27 05:39:58;;;;;;;5.50;1.00;;;;;;;;;;5014028;28;20771;-74
2021/08/27 05:42:24;;;;;;;2.28;0.82;;;;;;;;;;5023687;28;20061;-75
2021/08/27 05:44:51;;;;;;;3.15;1.08;;;;;;;;;;5007986;28;20077;-75
2021/08/27 05:47:17;;;;;;;1.42;0.70;;;;;;;;;;5018621;28;20521;-74
2021/08/27 05:49:43;;;;;;;2.00;0.70;;;;;;;;;;5025723;28;20061;-74
2021/08/27 05:52:10;;;;;;;1.67;0.70;;;;;;;;;;5021913;28;20453;-74
2021/08/27 05:54:36;;;;;;;2.05;0.70;;;;;;;;;;5016855;28;20041;-74
2021/08/27 05:57:03;;;;;;;1.90;0.90;;;;;;;;;;5012883;28;20073;-74
2021/08/27 05:59:29;;;;;;;2.58;0.90;;;;;;;;;;5017510;28;20104;-74
2021/08/27 06:01:55;;;;;;;1.23;0.70;;;;;;;;;;5013431;28;20064;-75
2021/08/27 06:04:22;;;;;;;3.00;0.95;;;;;;;;;;5021069;28;20065;-75
2021/08/27 06:06:50;;;;;;;2.28;0.90;;;;;;;;;;5016783;28;20068;-75
2021/08/27 06:09:16;;;;;;;4.45;0.98;;;;;;;;;;5023134;28;20053;-74
2021/08/27 06:11:42;;;;;;;2.28;0.90;;;;;;;;;;5018683;28;20057;-75
2021/08/27 06:14:09;;;;;;;3.90;0.80;;;;;;;;;;5019619;28;20764;-75
2021/08/27 06:16:35;;;;;;;1.95;0.80;;;;;;;;;;5031450;28;20162;-76
2021/08/27 06:19:04;;;;;;;3.17;1.17;;;;;;;;;;5023421;28;20602;-74
2021/08/27 06:21:31;;;;;;;3.33;0.88;;;;;;;;;;5034826;28;20519;-74
2021/08/27 06:23:58;;;;;;;2.08;0.90;;;;;;;;;;5021331;28;20131;-74
2021/08/27 06:26:24;;;;;;;3.53;1.00;;;;;;;;;;5026408;28;20061;-74
2021/08/27 06:28:50;;;;;;;2.33;0.88;;;;;;;;;;5022763;28;20072;-74
2021/08/27 06:31:17;;;;;;;2.15;1.00;;;;;;;;;;5020134;28;20053;-75
2021/08/27 06:33:43;;;;;;;1.40;0.55;;;;;;;;;;5024992;28;20066;-75
2021/08/27 06:36:10;;;;;;;2.88;1.00;;;;;;;;;;5023537;28;20123;-74
2021/08/27 06:38:36;;;;;;;1.58;0.65;;;;;;;;;;5016902;28;20449;-74
2021/08/27 06:41:03;;;;;;;1.77;0.68;;;;;;;;;;5014819;28;20064;-75
2021/08/27 06:43:31;;;;;;;3.10;0.90;;;;;;;;;;5019196;28;20501;-73
2021/08/27 06:45:59;;;;;;;4.15;0.90;;;;;;;;;;5018581;28;20068;-75
2021/08/27 06:48:25;;;;;;;1.92;0.73;;;;;;;;;;5023086;28;21301;-75
2021/08/27 06:50:52;;;;;;;3.22;0.75;;;;;;;;;;5022625;28;20053;-75
2021/08/27 06:53:18;;;;;;;1.33;0.50;;;;;;;;;;5022063;28;20068;-75
2021/08/27 06:55:44;;;;;;;1.60;0.85;;;;;;;;;;5021087;28;20053;-76
2021/08/27 06:58:11;;;;;;;1.17;0.57;;;;;;;;;;5034232;28;20756;-75
2021/08/27 07:00:37;;;;;;;2.83;1.67;;;;;;;;;;5036725;28;20488;-75
2021/08/27 07:03:04;;;;;;;1.83;0.80;;;;;;;;;;5019869;28;20068;-75
2021/08/27 07:05:31;;;;;;;1.23;0.70;;;;;;;;;;5022737;28;20057;-74
2021/08/27 07:07:58;;;;;;;2.28;1.00;;;;;;;;;;5021463;28;20519;-74
2021/08/27 07:10:24;;;;;;;1.80;0.80;;;;;;;;;;5023948;28;20049;-74
2021/08/27 07:12:51;;;;;;;1.98;0.95;;;;;;;;;;5038897;28;20056;-74
2021/08/27 07:15:18;;;;;;;1.38;0.68;;;;;;;;;;5025216;28;20046;-75
2021/08/27 07:17:44;;;;;;;1.90;0.90;;;;;;;;;;5023752;28;20488;-75
2021/08/27 07:20:11;;;;;;;1.85;0.80;;;;;;;;;;5025302;28;20056;-74
2021/08/27 07:22:38;;;;;;;1.90;0.80;;;;;;;;;;5024459;28;20061;-74
2021/08/27 07:25:05;;;;;;;3.92;0.90;;;;;;;;;;5013717;28;20061;-75
2021/08/27 07:27:31;;;;;;;2.88;0.90;;;;;;;;;;5020176;28;20034;-75
2021/08/27 07:29:58;;;;;;;2.30;0.88;;;;;;;;;;5012618;28;20064;-76
2021/08/27 07:32:24;;;;;;;2.88;1.10;;;;;;;;;;5014828;28;20038;-74
2021/08/27 07:34:50;;;;;;;1.95;0.98;;;;;;;;;;5014345;28;20540;-74
2021/08/27 07:37:17;;;;;;;1.02;0.60;;;;;;;;;;5019184;28;20066;-75
2021/08/27 07:39:43;;;;;;;2.08;0.73;;;;;;;;;;5015010;28;20540;-74
2021/08/27 07:42:10;;;;;;;1.60;0.90;;;;;;;;;;5014098;28;20075;-75
2021/08/27 07:44:37;;;;;;;1.63;0.73;;;;;;;;;;5014641;28;20046;-75
2021/08/27 07:47:04;;;;;;;1.02;0.60;;;;;;;;;;5021873;28;20066;-74
2021/08/27 07:49:30;;;;;;;1.40;0.80;;;;;;;;;;5024235;28;20072;-73
2021/08/27 07:51:57;;;;;;;2.28;0.70;;;;;;;;;;5017421;28;20052;-74
2021/08/27 07:54:24;;;;;;;2.78;0.70;;;;;;;;;;5009997;28;20053;-74
2021/08/27 07:56:50;;;;;;;3.35;0.70;;;;;;;;;;5010990;28;20060;-75
2021/08/27 07:59:17;;;;;;;1.45;0.82;;;;;;;;;;5024848;28;20073;-75
2021/08/27 08:01:43;;;;;;;1.33;0.80;;;;;;;;;;5014014;28;20033;-75
2021/08/27 08:04:10;;;;;;;2.67;0.82;;;;;;;;;;5020484;28;20069;-74
2021/08/27 08:06:36;;;;;;;2.22;0.70;;;;;;;;;;5012042;28;20061;-75
2021/08/27 08:09:04;;;;;;;1.65;0.80;;;;;;;;;;5028917;28;20068;-75
2021/08/27 08:11:30;;;;;;;2.13;0.70;;;;;;;;;;5029819;28;20072;-73
2021/08/27 08:13:56;;;;;;;1.92;1.00;;;;;;;;;;5019673;28;20068;-76
2021/08/27 08:16:23;;;;;;;2.03;1.00;;;;;;;;;;5029333;28;20056;-74
2021/08/27 08:18:49;;;;;;;1.90;0.90;;;;;;;;;;5031420;28;20658;-74
2021/08/27 08:21:19;;;;;;;1.58;0.88;;;;;;;;;;5018848;28;20072;-75
2021/08/27 08:23:46;;;;;;;1.60;0.68;;;;;;;;;;5032854;28;20061;-75
2021/08/27 08:26:12;;;;;;;1.83;0.80;;;;;;;;;;5018912;28;20115;-75
2021/08/27 08:28:39;;;;;;;1.67;0.88;;;;;;;;;;5034180;28;20811;-75
2021/08/27 08:31:05;;;;;;;2.35;0.93;;;;;;;;;;5021793;28;20111;-75
2021/08/27 08:33:32;;;;;;;1.63;0.77;;;;;;;;;;5026327;28;20053;-74
2021/08/27 08:35:58;;;;;;;2.35;0.82;;;;;;;;;;5024879;28;20100;-74
2021/08/27 08:38:25;;;;;;;1.65;0.80;;;;;;;;;;5027542;28;20078;-74
2021/08/27 08:40:51;;;;;;;2.20;1.00;;;;;;;;;;5024851;28;20057;-74
2021/08/27 08:43:17;;;;;;;2.13;0.90;;;;;;;;;;5024475;28;20549;-74
2021/08/27 08:45:48;;;;;;;1.40;0.80;;;;;;;;;;5012216;28;20045;-74
2021/08/27 08:48:18;;;;;;;3.20;1.27;;;;;;;;;;5016850;28;20504;-75
2021/08/27 08:50:44;;;;;;;1.60;0.90;;;;;;;;;;5015476;28;20382;-74
2021/08/27 08:53:11;;;;;;;3.40;0.80;;;;;;;;;;5015959;28;20128;-75
2021/08/27 08:55:38;;;;;;;5.28;0.90;;;;;;;;;;5013095;28;20053;-74
2021/08/27 08:58:05;;;;;;;2.15;0.82;;;;;;;;;;5018615;28;20049;-75
2021/08/27 09:00:31;;;;;;;2.30;0.80;;;;;;;;;;5022894;28;20075;-75
2021/08/27 09:03:01;;;;;;;2.00;1.00;;;;;;;;;;5024560;28;20081;-74
2021/08/27 09:05:28;;;;;;;3.22;0.85;;;;;;;;;;5025671;28;20049;-73
2021/08/27 09:07:54;;;;;;;1.23;0.70;;;;;;;;;;5025199;28;20076;-74
2021/08/27 09:10:21;;;;;;;4.63;1.13;;;;;;;;;;5022725;28;20060;-75
2021/08/27 09:12:49;;;;;;;2.00;0.98;;;;;;;;;;5021791;28;20061;-75
2021/08/27 09:15:16;;;;;;;1.60;0.90;;;;;;;;;;5032252;28;20056;-75
2021/08/27 09:17:47;;;;;;;1.80;1.08;;;;;;;;;;5025417;28;20065;-75
2021/08/27 09:20:17;;;;;;;3.03;1.00;;;;;;;;;;5022929;28;20061;-75
2021/08/27 09:22:47;;;;;;;1.88;0.90;;;;;;;;;;5032383;28;20673;-75
2021/08/27 09:25:14;;;;;;;2.58;1.30;;;;;;;;;;5009473;28;20053;-75
2021/08/27 09:27:59;;;;;;;2.15;1.00;;;;;;;;;;5012333;28;20558;-75
2021/08/27 09:30:26;;;;;;;1.52;0.90;;;;;;;;;;5012164;28;20883;-74
2021/08/27 09:32:54;;;;;;;1.67;0.90;;;;;;;;;;5015155;28;20158;-74
2021/08/27 09:35:22;;;;;;;3.73;1.00;;;;;;;;;;4984022;28;1107783;-74
2021/08/27 09:37:50;;;;;;;1.45;0.90;;;;;;;;;;5014352;28;20061;-75
2021/08/27 09:40:17;;;;;;;2.83;0.90;;;;;;;;;;5010224;28;20053;-75
2021/08/27 09:42:48;;;;;;;1.65;1.05;;;;;;;;;;5021834;28;20069;-74
2021/08/27 09:45:15;;;;;;;1.73;1.02;;;;;;;;;;5023143;28;20068;-75
2021/08/27 09:48:01;;;;;;;1.90;1.02;;;;;;;;;;5019110;28;20131;-74
2021/08/27 09:50:29;;;;;;;3.88;1.05;;;;;;;;;;5016957;28;20057;-74
2021/08/27 09:52:57;;;;;;;2.00;1.25;;;;;;;;;;5019322;28;20106;-74
2021/08/27 09:55:23;;;;;;;2.78;1.13;;;;;;;;;;5015132;28;20111;-74
2021/08/27 09:57:50;;;;;;;4.40;1.35;;;;;;;;;;5008616;28;20057;-75
2021/08/27 10:00:20;;;;;;;2.75;1.20;;;;;;;;;;5015791;28;20057;-75
2021/08/27 10:02:48;;;;;;;1.85;1.15;;;;;;;;;;5014197;28;20523;-73
2021/08/27 10:05:15;;;;;;;2.40;1.10;;;;;;;;;;5027632;28;20169;-75
2021/08/27 10:07:42;;;;;;;2.25;0.82;;;;;;;;;;5018913;28;20575;-74
2021/08/27 10:10:10;;;;;;;2.67;1.35;;;;;;;;;;5016271;28;20114;-75
2021/08/27 10:12:38;;;;;;;4.38;1.20;;;;;;;;;;5021796;28;20733;-74
2021/08/27 10:15:06;;;;;;;2.88;1.30;;;;;;;;;;5012492;28;20107;-74
2021/08/27 10:17:34;;;;;;;2.55;1.00;;;;;;;;;;5026550;28;20123;-74
2021/08/27 10:20:00;;;;;;;3.50;1.30;;;;;;;;;;5024477;28;20065;-74
2021/08/27 10:22:26;;;;;;;5.22;1.20;;;;;;;;;;5018263;28;20057;-74
2021/08/27 10:24:53;;;;;;;1.80;1.20;;;;;;;;;;5019873;28;20566;-74
2021/08/27 10:27:20;;;;;;;1.90;1.10;;;;;;;;;;5011701;28;20570;-76
2021/08/27 10:29:50;;;;;;;2.00;1.00;;;;;;;;;;5011464;28;20076;-75
2021/08/27 10:32:35;;;;;;;2.03;1.17;;;;;;;;;;5012149;28;20061;-75
2021/08/27 10:35:02;;;;;;;3.50;1.20;;;;;;;;;;5011297;28;20136;-74
2021/08/27 10:37:44;;;;;;;1.63;1.10;;;;;;;;;;5015379;28;20073;-75
2021/08/27 10:40:23;;;;;;;2.10;1.13;;;;;;;;;;5012259;28;22061;-75
2021/08/27 10:42:50;;;;;;;2.88;1.10;;;;;;;;;;5013709;28;20138;-75
2021/08/27 10:45:37;;;;;;;4.70;1.73;;;;;;;;;;5013277;28;20070;-76
2021/08/27 10:48:08;;;;;;;2.35;1.20;;;;;;;;;;5014254;28;20076;-74
2021/08/27 10:50:34;;;;;;;;;;;;;;;;;;5011223;28;20274;-73
2021/08/27 10:53:19;;;;;;;3.40;1.40;;;;;;;;;;5018743;28;20545;-73
2021/08/27 10:55:46;;;;;;;2.67;1.30;;;;;;;;;;5018205;28;20065;-74
2021/08/27 10:58:15;;;;;;;3.35;1.58;;;;;;;;;;5029937;28;20081;-74
2021/08/27 11:00:47;;;;;;;3.13;1.40;;;;;;;;;;5022717;28;20057;-74
2021/08/27 11:03:15;;;;;;;1.70;1.17;;;;;;;;;;5015434;28;21356;-73
2021/08/27 11:05:43;;;;;;;3.00;1.42;;;;;;;;;;5017859;28;20077;-76
2021/08/27 11:08:13;;;;;;;3.92;1.30;;;;;;;;;;5018145;28;20069;-74
2021/08/27 11:10:44;;;;;;;3.13;1.40;;;;;;;;;;5026274;28;20056;-74
2021/08/27 11:13:12;;;;;;;2.75;1.30;;;;;;;;;;5016765;28;21507;-73
2021/08/27 11:15:39;;;;;;;2.30;1.40;;;;;;;;;;5014843;28;20665;-74
2021/08/27 11:18:08;;;;;;;2.88;1.48;;;;;;;;;;5019318;28;20056;-75
2021/08/27 11:20:35;;;;;;;2.35;1.42;;;;;;;;;;5013770;28;20054;-75
2021/08/27 11:23:01;;;;;;;2.78;1.58;;;;;;;;;;5019970;28;20061;-73
2021/08/27 11:25:28;;;;;;;2.50;1.40;;;;;;;;;;5017993;28;20455;-74
2021/08/27 11:28:09;;;;;;;3.60;1.70;;;;;;;;;;5027942;28;20138;-75
2021/08/27 11:30:37;;;;;;;4.00;1.58;;;;;;;;;;5011115;28;20049;-74
2021/08/27 11:33:03;;;;;;;3.20;1.58;;;;;;;;;;5015817;28;20060;-74
2021/08/27 11:35:30;;;;;;;2.95;1.48;;;;;;;;;;5017419;28;20111;-75
2021/08/27 11:38:08;;;;;;;2.83;1.55;;;;;;;;;;5021715;28;20077;-73
2021/08/27 11:40:36;;;;;;;2.38;1.50;;;;;;;;;;5017581;28;20061;-73
2021/08/27 11:43:02;;;;;;;2.03;1.27;;;;;;;;;;5016823;28;20095;-75
2021/08/27 11:45:33;;;;;;;3.35;1.67;;;;;;;;;;5015697;28;20567;-75
2021/08/27 11:48:05;;;;;;;2.83;1.23;;;;;;;;;;5015902;28;20077;-75
2021/08/27 11:50:35;;;;;;;2.05;1.38;;;;;;;;;;5013631;28;20056;-74
2021/08/27 11:53:02;;;;;;;2.10;1.25;;;;;;;;;;5012713;28;20053;-73
2021/08/27 11:55:29;;;;;;;2.78;1.33;;;;;;;;;;5015137;28;20092;-74
2021/08/27 11:57:57;;;;;;;2.75;1.50;;;;;;;;;;5025977;28;20065;-74
2021/08/27 12:00:24;;;;;;;3.42;1.58;;;;;;;;;;5021725;28;20068;-74
2021/08/27 12:02:55;;;;;;;4.65;1.40;;;;;;;;;;5016504;28;20111;-74
2021/08/27 12:05:22;;;;;;;3.05;1.60;;;;;;;;;;5017921;28;20060;-72
2021/08/27 12:08:08;;;;;;;2.08;1.30;;;;;;;;;;5022211;28;20508;-74
2021/08/27 12:10:36;;;;;;;3.28;1.45;;;;;;;;;;5009965;28;20120;-74
2021/08/27 12:13:03;;;;;;;2.35;1.48;;;;;;;;;;5010358;28;20057;-74
2021/08/27 12:15:31;;;;;;;2.33;1.48;;;;;;;;;;5018328;28;20070;-74
2021/08/27 12:18:04;;;;;;;3.03;1.33;;;;;;;;;;5021982;28;20069;-73
2021/08/27 12:20:34;;;;;;;4.43;1.40;;;;;;;;;;5011029;28;20072;-74
2021/08/27 12:23:08;;;;;;;3.42;1.45;;;;;;;;;;5020875;28;20068;-74
2021/08/27 12:25:41;;;;;;;4.63;1.60;;;;;;;;;;5019767;28;20064;-72
2021/08/27 12:28:09;;;;;;;3.47;1.40;;;;;;;;;;5018103;28;20516;-75
2021/08/27 12:30:42;;;;;;;2.75;1.50;;;;;;;;;;5015885;28;20060;-73
2021/08/27 12:33:09;;;;;;;2.83;1.40;;;;;;;;;;5022276;28;21222;-74
2021/08/27 12:35:35;;;;;;;2.05;1.30;;;;;;;;;;5015267;28;20069;-74
2021/08/27 12:38:02;;;;;;;2.55;1.20;;;;;;;;;;5015837;28;20137;-74
2021/08/27 12:40:30;;;;;;;3.25;1.30;;;;;;;;;;5011090;28;20118;-74
2021/08/27 12:43:06;;;;;;;3.67;1.30;;;;;;;;;;5014241;28;20111;-74
2021/08/27 12:45:45;;;;;;;4.93;1.55;;;;;;;;;;5014907;28;20057;-73
2021/08/27 12:48:14;;;;;;;5.55;1.50;;;;;;;;;;5005894;28;21253;-73
2021/08/27 12:50:49;;;;;;;3.58;1.10;;;;;;;;;;5014486;28;20037;-72
2021/08/27 12:53:15;;;;;;;4.47;1.67;;;;;;;;;;5013259;28;21253;-73
2021/08/27 12:55:42;;;;;;;6.47;1.40;;;;;;;;;;5024408;28;20091;-73
2021/08/27 12:58:09;;;;;;;3.60;1.60;;;;;;;;;;5018571;28;20045;-72
2021/08/27 13:00:36;;;;;;;5.97;1.70;;;;;;;;;;5020463;28;20523;-72
2021/08/27 13:03:15;;;;;;;5.28;1.50;;;;;;;;;;5018544;28;20072;-73
2021/08/27 13:05:47;;;;;;;3.30;1.30;;;;;;;;;;5024803;28;20143;-78
2021/08/27 13:08:14;;;;;;;;;;;;;;;;;;5032278;28;21146;-75
2021/08/27 13:10:59;;;;;;;3.00;1.50;;;;;;;;;;5025967;28;19960;-74
2021/08/27 13:13:27;;;;;;;2.30;1.30;;;;;;;;;;5009401;28;21192;-74
2021/08/27 13:16:04;;;;;;;2.35;1.40;;;;;;;;;;5015571;28;20490;-74
2021/08/27 13:18:45;;;;;;;3.10;1.20;;;;;;;;;;5020154;28;20091;-73
2021/08/27 13:21:12;;;;;;;2.25;1.30;;;;;;;;;;5014374;28;20143;-74
2021/08/27 13:23:39;;;;;;;2.00;1.20;;;;;;;;;;5024805;28;20061;-73
2021/08/27 13:26:08;;;;;;;2.00;1.13;;;;;;;;;;5020062;28;20118;-75
2021/08/27 13:28:35;;;;;;;2.58;1.40;;;;;;;;;;5019535;28;20057;-75
2021/08/27 13:31:01;;;;;;;3.50;1.40;;;;;;;;;;5010080;28;20069;-74
2021/08/27 13:33:28;;;;;;;2.85;1.10;;;;;;;;;;5022960;28;20111;-75
2021/08/27 13:35:54;;;;;;;2.53;1.33;;;;;;;;;;5017913;28;20084;-75
2021/08/27 13:38:20;;;;;;;3.67;1.17;;;;;;;;;;5014531;28;20506;-75
2021/08/27 13:40:47;;;;;;;2.50;1.30;;;;;;;;;;5011492;28;20065;-74
2021/08/27 13:43:13;;;;;;;5.72;1.33;;;;;;;;;;5016322;28;20058;-74
2021/08/27 13:45:39;;;;;;;4.85;1.38;;;;;;;;;;5014698;28;20061;-75
2021/08/27 13:48:06;;;;;;;3.50;1.45;;;;;;;;;;5018034;28;20069;-74
2021/08/27 13:50:33;;;;;;;10.35;1.65;;;;;;;;;;5016658;28;20458;-75
2021/08/27 13:53:00;;;;;;;3.22;1.60;;;;;;;;;;5016814;28;20057;-75
2021/08/27 13:55:26;;;;;;;3.70;1.40;;;;;;;;;;5023042;28;20053;-74
2021/08/27 13:57:52;;;;;;;2.80;1.30;;;;;;;;;;5013293;28;20061;-76
2021/08/27 14:00:20;;;;;;;3.60;1.35;;;;;;;;;;5028204;28;20075;-75
2021/08/27 14:02:46;;;;;;;1.95;1.20;;;;;;;;;;5018068;28;20069;-75
2021/08/27 14:05:14;;;;;;;2.50;1.60;;;;;;;;;;5014068;28;20203;-75
2021/08/27 14:07:40;;;;;;;5.03;1.35;;;;;;;;;;5018460;28;20393;-74
2021/08/27 14:10:08;;;;;;;2.20;1.38;;;;;;;;;;5028250;28;20061;-75
2021/08/27 14:12:35;;;;;;;1.80;1.20;;;;;;;;;;5034463;28;20142;-75
2021/08/27 14:15:02;;;;;;;2.33;1.38;;;;;;;;;;5022384;28;20521;-74
2021/08/27 14:17:28;;;;;;;2.38;1.30;;;;;;;;;;5020829;28;20093;-74
2021/08/27 14:19:54;;;;;;;2.00;1.20;;;;;;;;;;5021614;28;20061;-74
2021/08/27 14:22:21;;;;;;;4.38;1.45;;;;;;;;;;5022524;28;20069;-75
2021/08/27 14:24:47;;;;;;;3.50;1.10;;;;;;;;;;5032766;28;20068;-75
2021/08/27 14:27:14;;;;;;;3.00;1.55;;;;;;;;;;5018934;28;20457;-75
2021/08/27 14:29:40;;;;;;;2.13;1.42;;;;;;;;;;5020446;28;20445;-74
2021/08/27 14:32:07;;;;;;;4.35;1.50;;;;;;;;;;5016887;28;20064;-74
2021/08/27 14:34:33;;;;;;;3.20;1.63;;;;;;;;;;5012600;28;20057;-74
2021/08/27 14:36:59;;;;;;;2.55;1.50;;;;;;;;;;5014278;28;20468;-74
2021/08/27 14:39:26;;;;;;;2.78;1.50;;;;;;;;;;5028882;28;20061;-75
2021/08/27 14:41:52;;;;;;;3.97;1.80;;;;;;;;;;5021550;28;20061;-76
2021/08/27 14:44:19;;;;;;;3.13;1.50;;;;;;;;;;5022006;28;20495;-75
2021/08/27 14:46:46;;;;;;;2.90;1.30;;;;;;;;;;5020102;28;20065;-76
2021/08/27 14:49:12;;;;;;;10.77;1.50;;;;;;;;;;5014496;28;20061;-74